Weather at Rothwell Airfield

Public forecast

Using degrees Celsius for public forecast. Weather courtesy of forecast.io.

Closest aviation weather report (METAR) to Rothwell Airfield

Closest report is Avalon Airport, 7.4 nm (13.7 km) S.

2024/06/17 04:30 (retrieved 18 minutes ago)

YMAV 170430Z AUTO 19009KT 9999 // BKN027 BKN033 OVC043 13/06 Q1021

Closest aviation forecast (TAF) to Rothwell Airfield

Forecast is more than 6 hours old.

Closest forecast is Koumac Airport, 1,463.7 nm (2,710.7 km) NE.

2024/06/16 18:00 Ammendment (retrieved 11 hours ago)

TAF AMD NWWE 161700Z 1618/1718 CNL TAF AMD NWWK 161700Z 1618/1718 CNL